Latest Coastal Weather Observations for Coolangatta

IDQ60701

Issued at 12:51 am EST Wednesday 24 May 2017 (issued every 10 minutes, with the page automatically refreshed every 10 minutes)

About coastal observations | Map of coastal stations | Coastal observations for QLD | Marine services | Other Formats
Station Details ID: 040717 Name: COOLANGATTA Lat: -28.17 Lon: 153.51 Height: 4.0 m
Data from the previous 72 hours. | See also: Recent months at Coolangatta
Date/Time
EST
Temp
°C
Wind Pressure Rain since
9am
mm
Weather Cloud Vis
km
Sea
Height
m
Swell
Dir  Spd
kts
Gust
kts
hPa Trend Height
m
Period
s
Dir
24/12:42am 16.4 CALM 0 4 1019.0 - 0.0 - - 4 - - - -
24/12:30am 16.4 WSW 2 4 1019.3 - 0.0 - - 10 - - - -
24/12:00am 16.7 SW 1 4 1019.8 - 0.0 - - 10 - - - -
 
Date/Time
EST
Temp
°C
Wind Pressure Rain since
9am
mm
Weather Cloud Vis
km
Sea
Height
m
Swell
Dir  Spd
kts
Gust
kts
hPa Trend Height
m
Period
s
Dir
23/11:30pm 16.7 WSW 5 6 1020.1 - 0.0 - - 10 - - - -
23/11:00pm 16.7 SW 4 5 1020.3 - 0.0 - Partly cloudy 10 - - - -
23/10:30pm 16.9 WSW 5 6 1020.5 - 0.0 - - 10 - - - -
23/10:00pm 17.1 SW 1 4 1020.5 - 0.0 - - 10 - - - -
23/09:30pm 17.3 WSW 5 6 1020.5 - 0.0 - - 10 - - - -
23/09:00pm 17.4 WSW 4 6 1020.5 - 0.0 - Mostly clear 10 - - - -
23/08:30pm 17.7 SW 3 4 1020.5 - 0.0 - - 10 - - - -
23/08:00pm 18.1 SW 6 7 1020.4 - 0.0 - - 10 - - - -
23/07:30pm 18.2 SW 5 7 1020.2 - 0.0 - - 10 - - - -
23/07:00pm 18.5 SW 5 7 1020.1 - 0.0 - - 10 - - - -
23/06:30pm 18.7 WSW 5 6 1020.0 - 0.0 - - 10 - - - -
23/06:00pm 18.7 SW 3 6 1019.7 - 0.0 - - 10 - - - -
23/05:30pm 19.6 SE 3 6 1019.4 - 0.0 - - 10 - - - -
23/05:00pm 20.5 SE 6 8 1019.2 - 0.0 - - 10 - - - -
23/04:30pm 21.5 SE 8 10 1019.1 - 0.0 - - 10 - - - -
23/04:00pm 22.1 SE 9 11 1018.8 - 0.0 - - 10 - - - -
23/03:30pm 22.5 ESE 9 12 1018.6 - 0.0 - - 10 - - - -
23/03:00pm 22.8 E 10 12 1018.5 - 0.0 - - 10 - - - -
23/02:30pm 22.9 ESE 8 10 1018.6 - 0.0 - - 10 - - - -
23/02:00pm 24.0 ESE 10 12 1018.6 - 0.0 - - 10 - - - -
23/01:30pm 23.9 ESE 8 11 1018.9 - 0.0 - - 10 - - - -
23/01:00pm 24.2 ESE 8 11 1019.2 - 0.0 - - 10 - - - -
23/12:30pm 24.2 E 8 12 1019.6 - 0.0 - - 10 - - - -
23/12:00pm 24.1 ESE 8 12 1020.1 - 0.0 - Mostly clear 10 - - - -
23/11:30am 23.8 SSE 5 7 1020.5 - 0.0 - Partly cloudy 10 - - - -
23/11:00am 23.7 SSE 6 9 1020.9 - 0.0 - - 10 - - - -
23/10:30am 23.3 SSE 8 11 1021.4 - 0.0 - - 10 - - - -
23/10:00am 23.2 SSE 7 9 1021.8 - 0.0 - - 10 - - - -
23/09:30am 22.4 S 7 9 1022.2 - 0.0 - - 10 - - - -
23/09:00am 21.5 S 5 7 1022.3 - 0.0 - - 10 - - - -
23/08:30am 20.5 SSW 5 8 1022.1 - 0.0 - - 10 - - - -
23/08:00am 19.4 S 5 6 1021.9 - 0.0 - - 10 - - - -
23/07:30am 17.3 SSW 2 4 1021.7 - 0.0 - - 10 - - - -
23/07:00am 15.6 SSW 3 4 1021.4 - 0.0 - - 10 - - - -
23/06:30am 15.0 S 3 4 1021.1 - 0.0 - - 10 - - - -
23/06:00am 15.0 S 4 5 1020.9 - 0.0 - - 10 - - - -
23/05:30am 15.8 SSW 4 4 1020.6 - 0.0 - - 10 - - - -
23/05:16am 15.7 SSW 4 5 1020.5 - 0.0 - - 10 - - - -
23/05:00am 15.5 CALM 0 2 1020.3 - 0.0 - - 5 - - - -
23/04:30am 15.0 CALM 0 0 1020.3 - 0.0 - - 3 - - - -
23/04:28am 15.6 CALM 0 0 1020.3 - 0.0 - - 10 - - - -
23/04:00am 15.0 SW 3 4 1020.2 - 0.0 - - 0.6 - - - -
23/03:30am 15.7 SSW 1 3 1020.1 - 0.0 - - 3 - - - -
23/03:24am 15.6 SSW 1 3 1020.1 - 0.0 - - 5 - - - -
23/03:20am 15.6 CALM 0 3 1020.1 - 0.0 - - 10 - - - -
23/03:04am 15.3 SSW 3 4 1020.0 - 0.0 - - 6 - - - -
23/03:00am 15.6 SSW 3 4 1020.1 - 0.0 - - 10 - - - -
23/02:30am 16.4 SW 5 6 1020.3 - 0.0 - - 10 - - - -
23/02:00am 16.3 SW 4 5 1020.4 - 0.0 - - 10 - - - -
23/01:58am 16.3 SW 4 5 1020.4 - 0.0 - - 10 - - - -
23/01:39am 15.8 SW 4 4 1020.5 - 0.0 - - 5 - - - -
23/01:30am 16.1 SW 4 5 1020.5 - 0.0 - - 10 - - - -
23/01:00am 16.9 SW 4 5 1020.7 - 0.0 - - 10 - - - -
23/12:30am 17.2 SW 4 6 1021.0 - 0.0 - - 10 - - - -
23/12:00am 16.9 SW 4 6 1021.3 - 0.0 - - 10 - - - -
 
Date/Time
EST
Temp
°C
Wind Pressure Rain since
9am
mm
Weather Cloud Vis
km
Sea
Height
m
Swell
Dir  Spd
kts
Gust
kts
hPa Trend Height
m
Period
s
Dir
22/11:30pm 16.7 SW 3 4 1021.6 - 0.0 - - 10 - - - -
22/11:00pm 17.6 SW 4 6 1021.8 - 0.0 - Partly cloudy 10 - - - -
22/10:30pm 17.7 SW 5 6 1021.9 - 0.0 - Partly cloudy 10 - - - -
22/10:00pm 17.6 SW 4 4 1021.9 - 0.0 - - 10 - - - -
22/09:30pm 17.9 SW 4 5 1021.9 - 0.0 - - 10 - - - -
22/09:00pm 17.9 SSW 5 6 1022.0 - 0.0 - - 10 - - - -
22/08:30pm 17.3 SW 2 4 1021.9 - 0.0 - - 10 - - - -
22/08:00pm 17.7 SSW 2 3 1021.6 - 0.0 - Partly cloudy 10 - - - -
22/07:30pm 18.2 SSW 1 5 1021.4 - 0.0 - - 10 - - - -
22/07:00pm 19.3 SSW 4 5 1021.0 - 0.0 - - 10 - - - -
22/06:30pm 19.2 SSE 4 5 1020.8 - 0.0 - - 10 - - - -
22/06:00pm 19.7 S 5 6 1020.5 - 0.0 - - 10 - - - -
22/05:30pm 19.6 S 4 7 1020.2 - 0.0 - - 10 - - - -
22/05:00pm 20.8 SSE 6 8 1020.1 - 0.0 - - 10 - - - -
22/04:30pm 21.4 SE 6 8 1020.0 - 0.0 - Partly cloudy 10 - - - -
22/04:00pm 22.0 SSE 8 11 1019.9 - 0.0 - Partly cloudy 10 - - - -
22/03:30pm 22.6 SSE 11 14 1019.6 - 0.0 - - 10 - - - -
22/03:00pm 23.8 SE 13 15 1019.5 - 0.0 - - 10 - - - -
22/02:30pm 23.9 SE 12 16 1019.6 - 0.0 - - 10 - - - -
22/02:00pm 25.0 SE 11 15 1019.7 - 0.0 - - 10 - - - -
22/01:30pm 24.5 SSE 12 16 1019.8 - 0.0 - - 10 - - - -
22/01:00pm 24.8 SE 13 17 1019.9 - 0.0 - - 10 - - - -
22/12:30pm 25.2 SE 11 17 1020.2 - 0.0 - Partly cloudy 10 - - - -
22/12:00pm 24.7 SE 11 15 1020.5 - 0.0 - Mostly cloudy 10 - - - -
22/11:30am 24.5 SSE 8 11 1020.9 - 0.0 - Partly cloudy 10 - - - -
22/11:00am 23.9 S 9 13 1021.3 - 0.0 - Partly cloudy 10 - - - -
22/10:30am 23.4 S 8 11 1021.8 - 0.0 - - 10 - - - -
22/10:00am 23.3 SSE 9 13 1022.1 - 0.0 - - 10 - - - -
22/09:30am 22.5 S 8 11 1022.1 - 0.0 - - 10 - - - -
22/09:00am 21.9 S 8 13 1022.1 - 0.2 - - 10 - - - -
22/08:30am 20.8 SSW 6 10 1022.0 - 0.2 - - 10 - - - -
22/08:00am 19.7 S 4 6 1021.8 - 0.2 - - 10 - - - -
22/07:30am 18.3 CALM 0 0 1021.7 - 0.0 - - 10 - - - -
22/07:00am 16.7 CALM 0 0 1021.4 - 0.0 - - 10 - - - -
22/06:30am 16.4 SW 4 5 1021.0 - 0.0 - - 10 - - - -
22/06:00am 17.0 CALM 0 0 1020.6 - 0.0 - - 10 - - - -
22/05:30am 16.8 S 1 4 1020.3 - 0.0 - - 10 - - - -
22/05:00am 17.0 S 4 6 1020.1 - 0.0 - - 10 - - - -
22/04:30am 16.6 S 4 5 1019.9 - 0.0 - - 10 - - - -
22/04:00am 17.1 S 5 6 1019.8 - 0.0 - - 10 - - - -
22/03:30am 16.7 SSW 5 6 1019.5 - 0.0 - - 10 - - - -
22/03:00am 16.9 SSW 5 6 1019.8 - 0.0 - - 10 - - - -
22/02:30am 16.7 SSW 4 5 1019.7 - 0.0 - - 10 - - - -
22/02:00am 16.2 CALM 0 0 1019.9 - 0.0 - - 10 - - - -
22/01:44am 16.3 CALM 0 0 1019.9 - 0.0 - - 10 - - - -
22/01:30am 16.0 CALM 0 0 1020.0 - 0.0 - - 1 - - - -
22/01:09am 15.9 CALM 0 0 1020.1 - 0.0 - - 5 - - - -
22/01:00am 16.4 CALM 0 0 1020.1 - 0.0 - - 10 - - - -
22/12:30am 16.5 SW 3 5 1020.3 - 0.0 - - 10 - - - -
22/12:00am 16.6 SW 5 6 1020.3 - 0.0 - - 10 - - - -
 
Date/Time
EST
Temp
°C
Wind Pressure Rain since
9am
mm
Weather Cloud Vis
km
Sea
Height
m
Swell
Dir  Spd
kts
Gust
kts
hPa Trend Height
m
Period
s
Dir
21/11:30pm 16.8 SW 5 6 1020.4 - 0.0 - - 10 - - - -
21/11:00pm 16.8 SW 4 6 1020.5 - 0.0 - - 10 - - - -
21/10:30pm 17.0 SW 5 6 1020.5 - 0.0 - - 10 - - - -
21/10:00pm 16.9 SW 3 4 1020.7 - 0.0 - - 10 - - - -
21/09:30pm 16.9 SW 3 5 1020.8 - 0.0 - Partly cloudy 10 - - - -
21/09:00pm 17.1 SSW 2 3 1020.7 - 0.0 - Mostly clear 10 - - - -
21/08:30pm 17.8 SSW 3 4 1020.5 - 0.0 - - 10 - - - -
21/08:00pm 17.9 SW 5 6 1020.1 - 0.0 - - 10 - - - -
21/07:30pm 18.3 SW 5 6 1020.1 - 0.0 - - 10 - - - -
21/07:00pm 18.7 SW 6 7 1019.9 - 0.0 - - 10 - - - -
21/06:30pm 18.8 SW 5 6 1019.7 - 0.0 - - 10 - - - -
21/06:00pm 19.4 SW 4 5 1019.3 - 0.0 - - 10 - - - -
21/05:30pm 19.7 SSW 4 5 1018.9 - 0.0 - - 10 - - - -
21/05:00pm 20.1 SSE 4 5 1018.4 - 0.0 - - 10 - - - -
21/04:30pm 21.3 SE 6 8 1018.3 - 0.0 - - 10 - - - -
21/04:00pm 22.0 ESE 8 10 1018.1 - 0.0 - - 10 - - - -
21/03:30pm 22.4 ESE 7 9 1018.0 - 0.0 - - 10 - - - -
21/03:00pm 22.7 ESE 8 11 1017.9 - 0.0 - - 10 - - - -
21/02:30pm 23.2 ESE 9 11 1017.8 - 0.0 - - 10 - - - -
21/02:00pm 23.2 ESE 8 11 1017.6 - 0.0 - - 10 - - - -
21/01:30pm 23.5 E 8 13 1017.6 - 0.0 - - 10 - - - -
21/01:00pm 23.4 E 8 12 1017.9 - 0.0 - - 10 - - - -
21/12:30pm 24.0 ESE 8 11 1018.2 - 0.0 - - 10 - - - -
21/12:00pm 23.3 ESE 7 10 1018.7 - 0.0 - Mostly cloudy 10 - - - -
21/11:30am 22.7 ENE 9 12 1018.9 - 0.0 - Partly cloudy 10 - - - -
21/11:00am 23.0 ENE 8 10 1019.3 - 0.0 - Partly cloudy 10 - - - -
21/10:30am 22.9 NE 5 7 1019.5 - 0.0 - Partly cloudy 10 - - - -
21/10:00am 22.4 SE 4 6 1019.6 - 0.0 - Partly cloudy 10 - - - -
21/09:30am 21.7 SSE 5 7 1019.6 - 0.0 - - 10 - - - -
21/09:00am 20.7 SE 5 6 1019.4 - 0.0 - - 10 - - - -
21/08:30am 18.9 SSE 4 5 1019.4 - 0.0 - - 10 - - - -
21/08:00am 18.2 SSE 3 4 1019.0 - 0.0 - - 10 - - - -
21/07:30am 17.3 SSE 3 4 1019.0 - 0.0 - - 10 - - - -
21/07:10am 16.7 SSE 3 4 1018.8 - 0.0 - - 10 - - - -
21/07:00am 16.1 SSE 3 3 1018.7 - 0.0 - - 6 - - - -
21/06:30am 15.5 SSE 3 4 1018.3 - 0.0 - - 2 - - - -
21/06:00am 15.7 CALM 0 0 1018.0 - 0.0 - - 2 - - - -
21/05:39am 16.3 CALM 0 0 1017.9 - 0.0 - - 6 - - - -
21/05:34am 16.3 CALM 0 1 1017.9 - 0.0 - - 8 - - - -
21/05:30am 16.3 CALM 0 1 1017.8 - 0.0 - - 7 - - - -
21/05:00am 16.0 CALM 0 0 1017.7 - 0.0 - - 0.8 - - - -
21/04:42am 16.2 SE 3 3 1017.5 - 0.0 - Partly cloudy 5 - - - -
21/04:30am 16.3 SE 4 4 1017.6 - 0.0 - Partly cloudy 10 - - - -
21/04:00am 17.0 SSW 1 4 1017.3 - 0.0 - Partly cloudy 10 - - - -
21/03:30am 17.4 SSW 3 5 1017.3 - 0.0 - Cloudy 10 - - - -
21/03:00am 17.1 SW 3 5 1017.2 - 0.0 - Cloudy 10 - - - -
21/02:30am 16.8 SSW 1 4 1017.2 - 0.0 - Cloudy 10 - - - -
21/02:06am 16.4 CALM 0 0 1017.3 - 0.0 - Partly cloudy 10 - - - -
21/02:00am 16.2 CALM 0 0 1017.4 - 0.0 - Partly cloudy 9 - - - -
21/01:30am 16.4 CALM 0 0 1017.4 - 0.0 - Partly cloudy 1 - - - -
21/01:21am 16.4 CALM 0 0 1017.4 - 0.0 - Partly cloudy 4 - - - -
21/01:00am 16.6 CALM 0 0 1017.7 - 0.0 - Partly cloudy 10 - - - -

Other Formats:

Comma delimited format used in spreadsheet applications
http://www.bom.gov.au/fwo/IDQ60701/IDQ60701.94592.axf

JavaScript Object Notation format (JSON) in row-major order
http://www.bom.gov.au/fwo/IDQ60701/IDQ60701.94592.json